sensor_id;sensor_type;location;lat;lon;timestamp;pressure;altitude;pressure_sealevel;temperature;humidity
40692;BME280;26377;53.344;14.886;2022-07-17T00:00:27;102129.38;;;14.05;58.13
40692;BME280;26377;53.344;14.886;2022-07-17T00:02:57;102130.88;;;14.02;58.24
40692;BME280;26377;53.344;14.886;2022-07-17T00:05:24;102132.81;;;13.99;58.32
40692;BME280;26377;53.344;14.886;2022-07-17T00:07:53;102130.66;;;13.97;58.37
40692;BME280;26377;53.344;14.886;2022-07-17T00:10:21;102135.67;;;13.94;58.45
40692;BME280;26377;53.344;14.886;2022-07-17T00:12:49;102140.28;;;13.91;58.51
40692;BME280;26377;53.344;14.886;2022-07-17T00:15:16;102134.23;;;13.87;58.58
40692;BME280;26377;53.344;14.886;2022-07-17T00:17:45;102136.14;;;13.84;58.63
40692;BME280;26377;53.344;14.886;2022-07-17T00:20:14;102136.30;;;13.81;58.74
40692;BME280;26377;53.344;14.886;2022-07-17T00:22:41;102138.63;;;13.78;58.81
40692;BME280;26377;53.344;14.886;2022-07-17T00:25:12;102133.80;;;13.76;58.85
40692;BME280;26377;53.344;14.886;2022-07-17T00:27:40;102141.02;;;13.74;58.92
40692;BME280;26377;53.344;14.886;2022-07-17T00:30:07;102140.30;;;13.71;59.04
40692;BME280;26377;53.344;14.886;2022-07-17T00:32:39;102147.09;;;13.68;59.05
40692;BME280;26377;53.344;14.886;2022-07-17T00:35:07;102143.20;;;13.65;59.10
40692;BME280;26377;53.344;14.886;2022-07-17T00:37:43;102143.36;;;13.62;59.21
40692;BME280;26377;53.344;14.886;2022-07-17T00:40:13;102139.47;;;13.59;59.28
40692;BME280;26377;53.344;14.886;2022-07-17T00:42:42;102140.87;;;13.57;59.37
40692;BME280;26377;53.344;14.886;2022-07-17T00:45:11;102136.59;;;13.53;59.45
40692;BME280;26377;53.344;14.886;2022-07-17T00:47:52;102138.53;;;13.50;59.48
40692;BME280;26377;53.344;14.886;2022-07-17T00:50:28;102141.74;;;13.48;59.56
40692;BME280;26377;53.344;14.886;2022-07-17T00:52:58;102142.70;;;13.45;59.63
40692;BME280;26377;53.344;14.886;2022-07-17T00:55:25;102138.31;;;13.44;59.69
40692;BME280;26377;53.344;14.886;2022-07-17T00:57:58;102141.47;;;13.44;59.74
40692;BME280;26377;53.344;14.886;2022-07-17T01:00:27;102147.31;;;13.42;59.82
40692;BME280;26377;53.344;14.886;2022-07-17T01:02:55;102144.70;;;13.40;59.83
40692;BME280;26377;53.344;14.886;2022-07-17T01:05:24;102146.19;;;13.37;59.86
40692;BME280;26377;53.344;14.886;2022-07-17T01:07:54;102147.58;;;13.36;59.90
40692;BME280;26377;53.344;14.886;2022-07-17T01:10:23;102149.91;;;13.33;59.95
40692;BME280;26377;53.344;14.886;2022-07-17T01:12:52;102147.35;;;13.30;60.00
40692;BME280;26377;53.344;14.886;2022-07-17T01:15:20;102149.23;;;13.28;60.01
40692;BME280;26377;53.344;14.886;2022-07-17T01:17:49;102148.01;;;13.25;60.05
40692;BME280;26377;53.344;14.886;2022-07-17T01:20:17;102145.06;;;13.21;60.10
40692;BME280;26377;53.344;14.886;2022-07-17T01:22:49;102148.72;;;13.19;60.15
40692;BME280;26377;53.344;14.886;2022-07-17T01:25:20;102155.05;;;13.16;60.22
40692;BME280;26377;53.344;14.886;2022-07-17T01:27:49;102153.91;;;13.12;60.27
40692;BME280;26377;53.344;14.886;2022-07-17T01:30:16;102148.75;;;13.07;60.34
40692;BME280;26377;53.344;14.886;2022-07-17T01:32:46;102147.08;;;13.05;60.38
40692;BME280;26377;53.344;14.886;2022-07-17T01:35:15;102147.63;;;13.03;60.43
40692;BME280;26377;53.344;14.886;2022-07-17T01:37:44;102150.45;;;12.98;60.49
40692;BME280;26377;53.344;14.886;2022-07-17T01:40:14;102144.75;;;12.95;60.53
40692;BME280;26377;53.344;14.886;2022-07-17T01:42:48;102144.02;;;12.92;60.64
40692;BME280;26377;53.344;14.886;2022-07-17T01:45:18;102141.02;;;12.89;60.76
40692;BME280;26377;53.344;14.886;2022-07-17T01:47:48;102146.94;;;12.86;60.88
40692;BME280;26377;53.344;14.886;2022-07-17T01:50:16;102144.38;;;12.83;61.01
40692;BME280;26377;53.344;14.886;2022-07-17T01:52:44;102146.25;;;12.81;61.08
40692;BME280;26377;53.344;14.886;2022-07-17T01:55:15;102146.81;;;12.77;61.12
40692;BME280;26377;53.344;14.886;2022-07-17T01:57:45;102152.67;;;12.75;61.21
40692;BME280;26377;53.344;14.886;2022-07-17T02:00:17;102149.61;;;12.74;61.36
40692;BME280;26377;53.344;14.886;2022-07-17T02:02:48;102148.34;;;12.73;61.36
40692;BME280;26377;53.344;14.886;2022-07-17T02:05:19;102144.94;;;12.69;61.38
40692;BME280;26377;53.344;14.886;2022-07-17T02:07:46;102145.92;;;12.67;61.41
40692;BME280;26377;53.344;14.886;2022-07-17T02:10:17;102140.25;;;12.64;61.44
40692;BME280;26377;53.344;14.886;2022-07-17T02:12:45;102148.39;;;12.60;61.47
40692;BME280;26377;53.344;14.886;2022-07-17T02:15:12;102143.66;;;12.56;61.52
40692;BME280;26377;53.344;14.886;2022-07-17T02:17:41;102134.05;;;12.52;61.54
40692;BME280;26377;53.344;14.886;2022-07-17T02:20:11;102138.55;;;12.50;61.59
40692;BME280;26377;53.344;14.886;2022-07-17T02:22:41;102131.98;;;12.49;61.63
40692;BME280;26377;53.344;14.886;2022-07-17T02:25:09;102133.02;;;12.45;61.67
40692;BME280;26377;53.344;14.886;2022-07-17T02:27:39;102124.69;;;12.42;61.74
40692;BME280;26377;53.344;14.886;2022-07-17T02:30:13;102127.00;;;12.40;61.76
40692;BME280;26377;53.344;14.886;2022-07-17T02:32:45;102123.06;;;12.38;61.81
40692;BME280;26377;53.344;14.886;2022-07-17T02:35:14;102123.56;;;12.36;61.88
40692;BME280;26377;53.344;14.886;2022-07-17T02:37:42;102119.72;;;12.33;61.90
40692;BME280;26377;53.344;14.886;2022-07-17T02:40:12;102122.48;;;12.30;61.97
40692;BME280;26377;53.344;14.886;2022-07-17T02:42:41;102120.35;;;12.28;62.03
40692;BME280;26377;53.344;14.886;2022-07-17T02:45:10;102121.34;;;12.26;62.05
40692;BME280;26377;53.344;14.886;2022-07-17T02:47:37;102121.84;;;12.24;62.10
40692;BME280;26377;53.344;14.886;2022-07-17T02:50:07;102125.03;;;12.22;62.13
40692;BME280;26377;53.344;14.886;2022-07-17T02:52:37;102126.41;;;12.20;62.15
40692;BME280;26377;53.344;14.886;2022-07-17T02:55:06;102128.73;;;12.18;62.25
40692;BME280;26377;53.344;14.886;2022-07-17T02:57:33;102130.21;;;12.13;62.23
40692;BME280;26377;53.344;14.886;2022-07-17T03:00:05;102134.73;;;12.11;62.31
40692;BME280;26377;53.344;14.886;2022-07-17T03:02:37;102135.18;;;12.11;62.34
40692;BME280;26377;53.344;14.886;2022-07-17T03:05:07;102128.61;;;12.09;62.41
40692;BME280;26377;53.344;14.886;2022-07-17T03:07:36;102128.13;;;12.10;62.47
40692;BME280;26377;53.344;14.886;2022-07-17T03:10:07;102133.41;;;12.11;62.51
40692;BME280;26377;53.344;14.886;2022-07-17T03:12:38;102136.86;;;12.13;62.56
40692;BME280;26377;53.344;14.886;2022-07-17T03:15:09;102135.96;;;12.14;62.58
40692;BME280;26377;53.344;14.886;2022-07-17T03:17:39;102141.23;;;12.16;62.62
40692;BME280;26377;53.344;14.886;2022-07-17T03:20:08;102134.45;;;12.19;62.66
40692;BME280;26377;53.344;14.886;2022-07-17T03:22:36;102141.45;;;12.21;62.70
40692;BME280;26377;53.344;14.886;2022-07-17T03:25:07;102145.34;;;12.24;62.75
40692;BME280;26377;53.344;14.886;2022-07-17T03:27:36;102140.77;;;12.28;62.73
40692;BME280;26377;53.344;14.886;2022-07-17T03:30:06;102154.36;;;12.32;62.73
40692;BME280;26377;53.344;14.886;2022-07-17T03:32:36;102152.92;;;12.35;62.81
40692;BME280;26377;53.344;14.886;2022-07-17T03:35:06;102153.62;;;12.40;62.82
40692;BME280;26377;53.344;14.886;2022-07-17T03:37:35;102153.02;;;12.78;62.95
40692;BME280;26377;53.344;14.886;2022-07-17T03:40:06;102162.80;;;13.54;62.92
40692;BME280;26377;53.344;14.886;2022-07-17T03:42:34;102163.22;;;14.25;62.78
40692;BME280;26377;53.344;14.886;2022-07-17T03:45:01;102168.41;;;14.85;62.65
40692;BME280;26377;53.344;14.886;2022-07-17T03:47:31;102169.33;;;15.29;62.56
40692;BME280;26377;53.344;14.886;2022-07-17T03:49:58;102178.49;;;15.15;62.00
40692;BME280;26377;53.344;14.886;2022-07-17T03:52:28;102181.63;;;14.88;61.79
40692;BME280;26377;53.344;14.886;2022-07-17T03:54:59;102177.58;;;14.61;61.52
40692;BME280;26377;53.344;14.886;2022-07-17T03:57:26;102189.36;;;14.47;61.59
40692;BME280;26377;53.344;14.886;2022-07-17T03:59:53;102189.90;;;14.35;61.79
40692;BME280;26377;53.344;14.886;2022-07-17T04:02:21;102191.50;;;14.39;61.85
40692;BME280;26377;53.344;14.886;2022-07-17T04:04:48;102196.66;;;14.43;61.82
40692;BME280;26377;53.344;14.886;2022-07-17T04:07:15;102191.41;;;14.50;61.86
40692;BME280;26377;53.344;14.886;2022-07-17T04:09:56;102198.16;;;14.59;61.80
40692;BME280;26377;53.344;14.886;2022-07-17T04:12:28;102187.90;;;14.68;61.69
40692;BME280;26377;53.344;14.886;2022-07-17T04:14:57;102191.02;;;14.78;61.66
40692;BME280;26377;53.344;14.886;2022-07-17T04:17:24;102193.86;;;14.83;61.51
40692;BME280;26377;53.344;14.886;2022-07-17T04:19:52;102196.07;;;14.84;61.32
40692;BME280;26377;53.344;14.886;2022-07-17T04:22:20;102197.64;;;14.79;61.11
40692;BME280;26377;53.344;14.886;2022-07-17T04:24:47;102205.45;;;14.74;60.90
40692;BME280;26377;53.344;14.886;2022-07-17T04:27:15;102216.27;;;14.71;60.91
40692;BME280;26377;53.344;14.886;2022-07-17T04:29:46;102209.27;;;14.68;60.86
40692;BME280;26377;53.344;14.886;2022-07-17T04:32:13;102208.42;;;14.68;60.89
40692;BME280;26377;53.344;14.886;2022-07-17T04:34:40;102205.23;;;14.78;61.03
40692;BME280;26377;53.344;14.886;2022-07-17T04:37:09;102206.00;;;14.90;60.99
40692;BME280;26377;53.344;14.886;2022-07-17T04:39:38;102205.96;;;15.00;60.85
40692;BME280;26377;53.344;14.886;2022-07-17T04:42:09;102208.66;;;15.09;60.85
40692;BME280;26377;53.344;14.886;2022-07-17T04:44:37;102222.23;;;15.23;60.95
40692;BME280;26377;53.344;14.886;2022-07-17T04:47:04;102230.34;;;15.40;60.92
40692;BME280;26377;53.344;14.886;2022-07-17T04:49:31;102230.47;;;15.55;60.80
40692;BME280;26377;53.344;14.886;2022-07-17T04:51:58;102235.36;;;15.64;60.55
40692;BME280;26377;53.344;14.886;2022-07-17T04:54:27;102235.92;;;15.71;60.35
40692;BME280;26377;53.344;14.886;2022-07-17T04:56:58;102238.53;;;15.81;60.39
40692;BME280;26377;53.344;14.886;2022-07-17T04:59:26;102237.30;;;15.88;60.15
40692;BME280;26377;53.344;14.886;2022-07-17T05:01:57;102244.44;;;15.96;60.30
40692;BME280;26377;53.344;14.886;2022-07-17T05:04:25;102249.95;;;16.10;60.26
40692;BME280;26377;53.344;14.886;2022-07-17T05:06:52;102247.70;;;16.11;59.94
40692;BME280;26377;53.344;14.886;2022-07-17T05:09:21;102244.84;;;16.14;59.68
40692;BME280;26377;53.344;14.886;2022-07-17T05:11:48;102251.94;;;16.23;59.77
40692;BME280;26377;53.344;14.886;2022-07-17T05:14:15;102251.92;;;16.32;59.58
40692;BME280;26377;53.344;14.886;2022-07-17T05:16:43;102254.45;;;16.35;59.31
40692;BME280;26377;53.344;14.886;2022-07-17T05:19:10;102259.75;;;16.45;59.40
40692;BME280;26377;53.344;14.886;2022-07-17T05:21:37;102253.33;;;16.56;59.30
40692;BME280;26377;53.344;14.886;2022-07-17T05:24:07;102256.25;;;16.68;59.26
40692;BME280;26377;53.344;14.886;2022-07-17T05:26:35;102255.57;;;16.80;59.11
40692;BME280;26377;53.344;14.886;2022-07-17T05:29:02;102249.55;;;16.92;59.06
40692;BME280;26377;53.344;14.886;2022-07-17T05:31:29;102251.58;;;16.96;58.48
40692;BME280;26377;53.344;14.886;2022-07-17T05:33:56;102250.32;;;16.94;58.36
40692;BME280;26377;53.344;14.886;2022-07-17T05:36:26;102253.99;;;17.00;58.26
40692;BME280;26377;53.344;14.886;2022-07-17T05:38:53;102251.53;;;17.04;58.32
40692;BME280;26377;53.344;14.886;2022-07-17T05:41:21;102255.55;;;17.13;58.17
40692;BME280;26377;53.344;14.886;2022-07-17T05:43:48;102260.13;;;17.26;58.02
40692;BME280;26377;53.344;14.886;2022-07-17T05:46:16;102259.45;;;17.38;58.04
40692;BME280;26377;53.344;14.886;2022-07-17T05:48:44;102259.87;;;17.55;57.89
40692;BME280;26377;53.344;14.886;2022-07-17T05:51:12;102264.06;;;17.74;57.88
40692;BME280;26377;53.344;14.886;2022-07-17T05:53:40;102262.53;;;17.93;57.88
40692;BME280;26377;53.344;14.886;2022-07-17T05:56:07;102273.53;;;18.18;57.87
40692;BME280;26377;53.344;14.886;2022-07-17T05:58:34;102268.55;;;18.41;57.36
40692;BME280;26377;53.344;14.886;2022-07-17T06:01:02;102262.59;;;18.36;56.93
40692;BME280;26377;53.344;14.886;2022-07-17T06:03:29;102272.69;;;18.24;56.70
40692;BME280;26377;53.344;14.886;2022-07-17T06:05:58;102279.23;;;18.27;56.27
40692;BME280;26377;53.344;14.886;2022-07-17T06:08:26;102274.28;;;18.06;56.08
40692;BME280;26377;53.344;14.886;2022-07-17T06:10:54;102272.89;;;18.21;56.34
40692;BME280;26377;53.344;14.886;2022-07-17T06:13:21;102267.68;;;18.34;56.16
40692;BME280;26377;53.344;14.886;2022-07-17T06:15:49;102275.23;;;18.34;55.65
40692;BME280;26377;53.344;14.886;2022-07-17T06:18:17;102270.42;;;18.25;55.27
40692;BME280;26377;53.344;14.886;2022-07-17T06:20:44;102266.09;;;18.30;55.11
40692;BME280;26377;53.344;14.886;2022-07-17T06:23:12;102272.38;;;18.37;54.60
40692;BME280;26377;53.344;14.886;2022-07-17T06:25:39;102271.00;;;18.30;54.31
40692;BME280;26377;53.344;14.886;2022-07-17T06:28:07;102270.50;;;18.31;54.36
40692;BME280;26377;53.344;14.886;2022-07-17T06:30:36;102268.73;;;18.38;54.48
40692;BME280;26377;53.344;14.886;2022-07-17T06:33:08;102273.95;;;18.48;54.24
40692;BME280;26377;53.344;14.886;2022-07-17T06:35:35;102274.05;;;18.47;54.15
40692;BME280;26377;53.344;14.886;2022-07-17T06:38:04;102276.27;;;18.54;54.13
40692;BME280;26377;53.344;14.886;2022-07-17T06:40:34;102283.83;;;18.55;53.97
40692;BME280;26377;53.344;14.886;2022-07-17T06:43:05;102277.02;;;18.56;53.89
40692;BME280;26377;53.344;14.886;2022-07-17T06:45:33;102285.20;;;18.62;53.79
40692;BME280;26377;53.344;14.886;2022-07-17T06:48:02;102294.13;;;18.69;53.74
40692;BME280;26377;53.344;14.886;2022-07-17T06:50:31;102289.33;;;18.74;53.55
40692;BME280;26377;53.344;14.886;2022-07-17T06:53:03;102297.59;;;18.78;53.44
40692;BME280;26377;53.344;14.886;2022-07-17T06:55:32;102301.83;;;18.82;53.31
40692;BME280;26377;53.344;14.886;2022-07-17T06:58:00;102304.77;;;18.64;52.58
40692;BME280;26377;53.344;14.886;2022-07-17T07:00:27;102306.77;;;18.46;52.40
40692;BME280;26377;53.344;14.886;2022-07-17T07:02:54;102312.98;;;18.24;52.18
40692;BME280;26377;53.344;14.886;2022-07-17T07:05:22;102311.13;;;18.11;52.14
40692;BME280;26377;53.344;14.886;2022-07-17T07:07:51;102317.80;;;18.04;52.17
40692;BME280;26377;53.344;14.886;2022-07-17T07:10:18;102304.74;;;17.98;52.38
40692;BME280;26377;53.344;14.886;2022-07-17T07:12:46;102312.72;;;17.99;52.38
40692;BME280;26377;53.344;14.886;2022-07-17T07:15:15;102312.42;;;17.97;52.41
40692;BME280;26377;53.344;14.886;2022-07-17T07:17:44;102320.19;;;18.01;52.54
40692;BME280;26377;53.344;14.886;2022-07-17T07:20:12;102316.88;;;18.05;52.41
40692;BME280;26377;53.344;14.886;2022-07-17T07:22:40;102324.93;;;18.05;52.44
40692;BME280;26377;53.344;14.886;2022-07-17T07:25:08;102314.31;;;17.95;52.25
40692;BME280;26377;53.344;14.886;2022-07-17T07:27:35;102323.61;;;17.89;52.37
40692;BME280;26377;53.344;14.886;2022-07-17T07:30:04;102326.45;;;17.86;52.35
40692;BME280;26377;53.344;14.886;2022-07-17T07:32:31;102317.64;;;17.69;51.96
40692;BME280;26377;53.344;14.886;2022-07-17T07:34:58;102323.47;;;17.53;52.17
40692;BME280;26377;53.344;14.886;2022-07-17T07:37:26;102325.75;;;17.45;52.35
40692;BME280;26377;53.344;14.886;2022-07-17T07:39:53;102323.61;;;17.43;52.41
40692;BME280;26377;53.344;14.886;2022-07-17T07:42:22;102322.00;;;17.39;52.40
40692;BME280;26377;53.344;14.886;2022-07-17T07:44:50;102322.52;;;17.30;52.42
40692;BME280;26377;53.344;14.886;2022-07-17T07:47:18;102324.42;;;17.28;52.49
40692;BME280;26377;53.344;14.886;2022-07-17T07:49:46;102327.41;;;17.30;52.41
40692;BME280;26377;53.344;14.886;2022-07-17T07:52:14;102323.97;;;17.28;52.40
40692;BME280;26377;53.344;14.886;2022-07-17T07:54:41;102318.02;;;17.30;52.46
40692;BME280;26377;53.344;14.886;2022-07-17T07:57:09;102325.83;;;17.43;52.59
40692;BME280;26377;53.344;14.886;2022-07-17T07:59:38;102323.45;;;17.61;52.90
40692;BME280;26377;53.344;14.886;2022-07-17T08:02:08;102320.72;;;17.70;52.35
40692;BME280;26377;53.344;14.886;2022-07-17T08:04:37;102326.91;;;17.63;52.25
40692;BME280;26377;53.344;14.886;2022-07-17T08:07:05;102320.19;;;17.63;52.31
40692;BME280;26377;53.344;14.886;2022-07-17T08:09:32;102320.55;;;17.57;52.15
40692;BME280;26377;53.344;14.886;2022-07-17T08:12:00;102322.87;;;17.48;51.81
40692;BME280;26377;53.344;14.886;2022-07-17T08:14:29;102325.59;;;17.39;51.96
40692;BME280;26377;53.344;14.886;2022-07-17T08:16:58;102326.38;;;17.33;52.02
40692;BME280;26377;53.344;14.886;2022-07-17T08:19:27;102321.41;;;17.42;52.15
40692;BME280;26377;53.344;14.886;2022-07-17T08:21:58;102330.19;;;17.53;52.19
40692;BME280;26377;53.344;14.886;2022-07-17T08:24:27;102321.81;;;17.59;52.03
40692;BME280;26377;53.344;14.886;2022-07-17T08:26:55;102328.52;;;17.59;51.89
40692;BME280;26377;53.344;14.886;2022-07-17T08:29:23;102329.34;;;17.68;52.12
40692;BME280;26377;53.344;14.886;2022-07-17T08:31:52;102339.20;;;17.83;52.15
40692;BME280;26377;53.344;14.886;2022-07-17T08:34:20;102333.02;;;17.96;52.13
40692;BME280;26377;53.344;14.886;2022-07-17T08:36:48;102333.97;;;18.18;52.27
40692;BME280;26377;53.344;14.886;2022-07-17T08:39:15;102339.73;;;18.34;51.71
40692;BME280;26377;53.344;14.886;2022-07-17T08:41:43;102344.09;;;18.44;52.02
40692;BME280;26377;53.344;14.886;2022-07-17T08:44:10;102341.97;;;18.71;51.92
40692;BME280;26377;53.344;14.886;2022-07-17T08:46:39;102340.94;;;19.02;52.05
40692;BME280;26377;53.344;14.886;2022-07-17T08:49:07;102344.13;;;19.29;51.89
40692;BME280;26377;53.344;14.886;2022-07-17T08:51:34;102334.77;;;19.56;51.86
40692;BME280;26377;53.344;14.886;2022-07-17T08:54:02;102330.66;;;19.84;51.68
40692;BME280;26377;53.344;14.886;2022-07-17T08:56:30;102335.34;;;20.01;51.44
40692;BME280;26377;53.344;14.886;2022-07-17T08:58:59;102339.37;;;20.08;50.94
40692;BME280;26377;53.344;14.886;2022-07-17T09:01:29;102350.65;;;20.08;50.92
40692;BME280;26377;53.344;14.886;2022-07-17T09:04:03;102340.00;;;20.19;50.96
40692;BME280;26377;53.344;14.886;2022-07-17T09:06:33;102346.05;;;20.22;50.62
40692;BME280;26377;53.344;14.886;2022-07-17T09:09:12;102346.42;;;20.23;50.37
40692;BME280;26377;53.344;14.886;2022-07-17T09:11:49;102349.24;;;20.22;50.20
40692;BME280;26377;53.344;14.886;2022-07-17T09:14:22;102351.09;;;20.34;50.31
40692;BME280;26377;53.344;14.886;2022-07-17T09:16:55;102353.44;;;20.45;50.18
40692;BME280;26377;53.344;14.886;2022-07-17T09:19:33;102353.72;;;20.48;50.12
40692;BME280;26377;53.344;14.886;2022-07-17T09:22:11;102356.41;;;20.48;49.78
40692;BME280;26377;53.344;14.886;2022-07-17T09:24:51;102357.03;;;20.39;49.60
40692;BME280;26377;53.344;14.886;2022-07-17T09:27:30;102362.05;;;20.38;49.25
40692;BME280;26377;53.344;14.886;2022-07-17T09:32:36;102358.61;;;20.36;49.37
40692;BME280;26377;53.344;14.886;2022-07-17T09:35:09;102346.17;;;20.53;49.53
40692;BME280;26377;53.344;14.886;2022-07-17T09:37:39;102344.34;;;20.73;49.52
40692;BME280;26377;53.344;14.886;2022-07-17T09:40:11;102342.89;;;20.87;49.30
40692;BME280;26377;53.344;14.886;2022-07-17T09:42:58;102337.30;;;20.90;49.19
40692;BME280;26377;53.344;14.886;2022-07-17T09:45:27;102331.58;;;21.07;48.96
40692;BME280;26377;53.344;14.886;2022-07-17T09:47:56;102329.38;;;21.19;49.00
40692;BME280;26377;53.344;14.886;2022-07-17T09:50:27;102327.59;;;21.43;49.00
40692;BME280;26377;53.344;14.886;2022-07-17T09:52:58;102332.77;;;21.64;48.68
40692;BME280;26377;53.344;14.886;2022-07-17T09:55:29;102331.02;;;21.70;48.50
40692;BME280;26377;53.344;14.886;2022-07-17T09:58:01;102333.20;;;21.83;48.41
40692;BME280;26377;53.344;14.886;2022-07-17T10:00:35;102323.69;;;22.01;48.17
40692;BME280;26377;53.344;14.886;2022-07-17T10:03:05;102330.41;;;22.13;48.06
40692;BME280;26377;53.344;14.886;2022-07-17T10:05:32;102325.84;;;22.14;47.86
40692;BME280;26377;53.344;14.886;2022-07-17T10:08:00;102333.88;;;22.26;47.88
40692;BME280;26377;53.344;14.886;2022-07-17T10:10:28;102329.57;;;22.24;47.47
40692;BME280;26377;53.344;14.886;2022-07-17T10:12:56;102336.33;;;22.18;47.48
40692;BME280;26377;53.344;14.886;2022-07-17T10:15:25;102329.20;;;22.23;47.33
40692;BME280;26377;53.344;14.886;2022-07-17T10:18:04;102331.06;;;22.28;47.35
40692;BME280;26377;53.344;14.886;2022-07-17T10:20:33;102335.02;;;22.29;47.02
40692;BME280;26377;53.344;14.886;2022-07-17T10:23:12;102335.67;;;22.09;46.59
40692;BME280;26377;53.344;14.886;2022-07-17T10:25:41;102335.23;;;21.97;46.65
40692;BME280;26377;53.344;14.886;2022-07-17T10:28:12;102344.11;;;22.05;46.54
40692;BME280;26377;53.344;14.886;2022-07-17T10:30:42;102339.00;;;22.13;46.57
40692;BME280;26377;53.344;14.886;2022-07-17T10:33:15;102344.84;;;22.25;46.40
40692;BME280;26377;53.344;14.886;2022-07-17T10:35:48;102347.22;;;22.35;46.36
40692;BME280;26377;53.344;14.886;2022-07-17T10:38:17;102353.67;;;22.45;46.32
40692;BME280;26377;53.344;14.886;2022-07-17T10:40:45;102345.89;;;22.41;45.94
40692;BME280;26377;53.344;14.886;2022-07-17T10:43:12;102343.93;;;22.19;45.72
40692;BME280;26377;53.344;14.886;2022-07-17T10:45:41;102346.92;;;22.27;45.82
40692;BME280;26377;53.344;14.886;2022-07-17T10:48:15;102351.30;;;22.41;45.62
40692;BME280;26377;53.344;14.886;2022-07-17T10:50:54;102347.25;;;22.17;44.85
40692;BME280;26377;53.344;14.886;2022-07-17T10:56:06;102349.84;;;22.24;44.81
40692;BME280;26377;53.344;14.886;2022-07-17T10:58:34;102346.38;;;22.16;45.04
40692;BME280;26377;53.344;14.886;2022-07-17T11:03:56;102352.84;;;22.32;44.98
40692;BME280;26377;53.344;14.886;2022-07-17T11:06:32;102343.64;;;22.29;44.46
40692;BME280;26377;53.344;14.886;2022-07-17T11:09:06;102355.66;;;22.25;44.50
40692;BME280;26377;53.344;14.886;2022-07-17T11:11:50;102359.97;;;22.28;44.75
40692;BME280;26377;53.344;14.886;2022-07-17T11:14:24;102352.84;;;22.32;44.61
40692;BME280;26377;53.344;14.886;2022-07-17T11:17:02;102356.86;;;22.26;44.62
40692;BME280;26377;53.344;14.886;2022-07-17T11:19:31;102355.80;;;22.29;44.63
40692;BME280;26377;53.344;14.886;2022-07-17T11:22:06;102363.42;;;22.53;44.75
40692;BME280;26377;53.344;14.886;2022-07-17T11:24:45;102360.75;;;22.64;44.48
40692;BME280;26377;53.344;14.886;2022-07-17T11:27:27;102357.86;;;22.84;44.65
40692;BME280;26377;53.344;14.886;2022-07-17T11:29:58;102357.41;;;23.12;44.69
40692;BME280;26377;53.344;14.886;2022-07-17T11:32:37;102350.67;;;23.45;44.72
40692;BME280;26377;53.344;14.886;2022-07-17T11:35:19;102351.14;;;23.72;44.40
40692;BME280;26377;53.344;14.886;2022-07-17T11:37:49;102353.22;;;23.96;44.26
40692;BME280;26377;53.344;14.886;2022-07-17T11:40:17;102353.44;;;24.09;44.05
40692;BME280;26377;53.344;14.886;2022-07-17T11:42:45;102350.28;;;24.25;43.72
40692;BME280;26377;53.344;14.886;2022-07-17T11:45:14;102349.55;;;23.91;43.03
40692;BME280;26377;53.344;14.886;2022-07-17T11:47:42;102349.19;;;23.68;43.19
40692;BME280;26377;53.344;14.886;2022-07-17T11:50:12;102350.06;;;23.41;42.88
40692;BME280;26377;53.344;14.886;2022-07-17T11:52:48;102357.92;;;23.28;42.91
40692;BME280;26377;53.344;14.886;2022-07-17T11:55:17;102347.72;;;23.26;43.14
40692;BME280;26377;53.344;14.886;2022-07-17T11:57:47;102349.67;;;23.68;43.43
40692;BME280;26377;53.344;14.886;2022-07-17T12:00:17;102347.59;;;23.66;43.18
40692;BME280;26377;53.344;14.886;2022-07-17T12:02:59;102354.45;;;23.70;42.60
40692;BME280;26377;53.344;14.886;2022-07-17T12:05:28;102352.26;;;23.75;42.55
40692;BME280;26377;53.344;14.886;2022-07-17T12:08:00;102353.45;;;23.87;42.32
40692;BME280;26377;53.344;14.886;2022-07-17T12:10:30;102352.70;;;24.02;42.35
40692;BME280;26377;53.344;14.886;2022-07-17T12:13:04;102355.87;;;24.12;42.16
40692;BME280;26377;53.344;14.886;2022-07-17T12:15:48;102352.98;;;24.25;41.91
40692;BME280;26377;53.344;14.886;2022-07-17T12:18:26;102352.69;;;24.39;41.92
40692;BME280;26377;53.344;14.886;2022-07-17T12:20:59;102350.53;;;24.53;41.61
40692;BME280;26377;53.344;14.886;2022-07-17T12:23:34;102341.99;;;24.63;41.29
40692;BME280;26377;53.344;14.886;2022-07-17T12:26:13;102347.70;;;24.60;41.05
40692;BME280;26377;53.344;14.886;2022-07-17T12:28:44;102354.28;;;24.10;40.36
40692;BME280;26377;53.344;14.886;2022-07-17T12:31:12;102348.07;;;23.65;40.32
40692;BME280;26377;53.344;14.886;2022-07-17T12:33:43;102341.77;;;23.65;40.77
40692;BME280;26377;53.344;14.886;2022-07-17T12:36:10;102345.72;;;23.77;41.00
40692;BME280;26377;53.344;14.886;2022-07-17T12:38:40;102344.08;;;23.97;41.13
40692;BME280;26377;53.344;14.886;2022-07-17T12:41:07;102355.17;;;23.99;41.04
40692;BME280;26377;53.344;14.886;2022-07-17T12:43:36;102351.81;;;24.12;41.21
40692;BME280;26377;53.344;14.886;2022-07-17T12:46:04;102343.36;;;24.32;41.18
40692;BME280;26377;53.344;14.886;2022-07-17T12:48:32;102341.94;;;24.43;41.05
40692;BME280;26377;53.344;14.886;2022-07-17T12:50:59;102351.53;;;24.52;40.92
40692;BME280;26377;53.344;14.886;2022-07-17T12:53:27;102355.70;;;24.56;40.67
40692;BME280;26377;53.344;14.886;2022-07-17T12:55:55;102347.19;;;24.61;40.60
40692;BME280;26377;53.344;14.886;2022-07-17T12:58:23;102342.77;;;24.60;40.47
40692;BME280;26377;53.344;14.886;2022-07-17T13:00:52;102342.64;;;24.50;40.34